Time;durP1;ratioP1;P1;durP2;ratioP2;P2;SDS_P1;SDS_P2;PMS_P1;PMS_P2;Temp;Humidity;BMP_temperature;BMP_pressure;BME280_temperature;BME280_humidity;BME280_pressure;Samples;Min_cycle;Max_cycle;Signal;HPM_P1;HPM_P2
2022/08/27 00:00:08;;;;;;;13.82;8.38;;;22.00;99.90;;;;;;5024762;28;20204;-64
2022/08/27 00:02:35;;;;;;;15.82;8.05;;;22.00;99.90;;;;;;5021926;28;20231;-64
2022/08/27 00:05:02;;;;;;;12.77;8.20;;;22.00;99.90;;;;;;5023541;28;20588;-64
2022/08/27 00:07:29;;;;;;;13.07;7.63;;;21.90;99.90;;;;;;5021930;28;20665;-64
2022/08/27 00:09:56;;;;;;;15.30;8.10;;;21.90;99.90;;;;;;5013589;28;20203;-64
2022/08/27 00:12:23;;;;;;;13.45;7.90;;;21.80;99.90;;;;;;5015607;28;20237;-64
2022/08/27 00:14:49;;;;;;;12.43;7.63;;;21.90;99.90;;;;;;5018399;28;20211;-64
2022/08/27 00:17:16;;;;;;;12.23;8.52;;;21.80;99.90;;;;;;5025151;28;20207;-64
2022/08/27 00:19:43;;;;;;;12.75;7.90;;;21.80;99.90;;;;;;5019203;28;20683;-64
2022/08/27 00:22:11;;;;;;;13.88;7.97;;;21.80;99.90;;;;;;5016234;28;20223;-64
2022/08/27 00:24:37;;;;;;;11.68;7.63;;;21.70;99.90;;;;;;5025601;28;20226;-64
2022/08/27 00:27:14;;;;;;;11.55;7.88;;;21.70;99.90;;;;;;5022777;28;20497;-64
2022/08/27 00:29:41;;;;;;;11.73;7.68;;;21.70;99.90;;;;;;5026427;28;20192;-64
2022/08/27 00:32:08;;;;;;;16.92;8.48;;;21.70;99.90;;;;;;5026180;28;20215;-64
2022/08/27 00:34:35;;;;;;;11.23;7.85;;;21.70;99.90;;;;;;5027040;28;20204;-64
2022/08/27 00:37:02;;;;;;;11.77;7.68;;;21.70;99.90;;;;;;5026088;28;20199;-64
2022/08/27 00:39:29;;;;;;;11.85;7.60;;;21.70;99.90;;;;;;5022067;28;20200;-64
2022/08/27 00:41:56;;;;;;;11.13;8.57;;;21.60;99.90;;;;;;5027303;28;20224;-64
2022/08/27 00:44:22;;;;;;;10.20;7.43;;;21.70;99.90;;;;;;5026692;28;20222;-65
2022/08/27 00:46:53;;;;;;;12.52;7.53;;;21.80;99.90;;;;;;5023434;28;20206;-64
2022/08/27 00:49:37;;;;;;;13.73;7.50;;;21.70;99.90;;;;;;5017200;28;20203;-64
2022/08/27 00:52:10;;;;;;;11.02;6.93;;;21.80;99.90;;;;;;5018474;28;20216;-64
2022/08/27 00:54:37;;;;;;;11.95;8.10;;;21.70;99.90;;;;;;5028308;28;20207;-64
2022/08/27 00:57:04;;;;;;;11.40;7.85;;;21.70;99.90;;;;;;5020692;28;20207;-66
2022/08/27 00:59:31;;;;;;;12.48;7.78;;;21.70;99.90;;;;;;5026758;28;20199;-67
2022/08/27 01:02:18;;;;;;;13.18;8.48;;;21.80;99.90;;;;;;5025500;28;20250;-65
2022/08/27 01:05:09;;;;;;;11.93;8.18;;;21.80;99.90;;;;;;5025284;28;20243;-67
2022/08/27 01:07:39;;;;;;;12.73;7.68;;;21.80;99.90;;;;;;5023887;28;20687;-67
2022/08/27 01:10:18;;;;;;;11.95;7.78;;;21.80;99.90;;;;;;5025154;28;20195;-65
2022/08/27 01:12:46;;;;;;;10.95;7.65;;;21.70;99.90;;;;;;5026049;28;20695;-65
2022/08/27 01:15:22;;;;;;;11.55;7.70;;;21.70;99.90;;;;;;5028153;28;20206;-66
2022/08/27 01:17:50;;;;;;;11.77;7.95;;;21.60;99.90;;;;;;5018697;28;20207;-66
2022/08/27 01:20:29;;;;;;;10.20;7.53;;;21.60;99.90;;;;;;5026559;28;20195;-66
2022/08/27 01:23:16;;;;;;;13.07;8.02;;;21.60;99.90;;;;;;5023420;28;20310;-65
2022/08/27 01:25:44;;;;;;;12.75;8.05;;;21.70;99.90;;;;;;5012884;28;20589;-66
2022/08/27 01:28:12;;;;;;;13.60;8.00;;;21.60;99.90;;;;;;5024305;28;20195;-66
2022/08/27 01:30:40;;;;;;;16.17;8.75;;;21.60;99.90;;;;;;5020923;28;20199;-66
2022/08/27 01:33:15;;;;;;;11.43;7.38;;;21.60;99.90;;;;;;5025142;28;20237;-67
2022/08/27 01:35:46;;;;;;;14.02;8.70;;;21.60;99.90;;;;;;5013097;28;20200;-65
2022/08/27 01:38:14;;;;;;;10.23;7.38;;;21.50;99.90;;;;;;5023062;28;20204;-66
2022/08/27 01:40:57;;;;;;;13.07;8.00;;;21.40;99.90;;;;;;5023406;28;20215;-66
2022/08/27 01:43:26;;;;;;;17.42;8.60;;;21.30;99.90;;;;;;5019881;28;20208;-65
2022/08/27 01:45:53;;;;;;;13.00;7.97;;;21.30;99.90;;;;;;5025839;28;20700;-67
2022/08/27 01:48:21;;;;;;;13.13;8.63;;;21.20;99.90;;;;;;5024235;28;20608;-66
2022/08/27 01:50:48;;;;;;;14.50;8.23;;;21.10;99.90;;;;;;5025344;28;20195;-65
2022/08/27 01:53:21;;;;;;;12.18;8.52;;;21.10;99.90;;;;;;5018437;28;20192;-65
2022/08/27 01:55:50;;;;;;;12.02;7.75;;;21.10;99.90;;;;;;5016225;28;20215;-65
2022/08/27 01:58:21;;;;;;;12.63;8.10;;;21.10;99.90;;;;;;5016791;28;20204;-65
2022/08/27 02:00:50;;;;;;;12.63;8.32;;;21.00;99.90;;;;;;5024137;28;20203;-67
2022/08/27 02:03:22;;;;;;;12.45;8.27;;;20.90;99.90;;;;;;5022477;28;20234;-67
2022/08/27 02:05:50;;;;;;;11.27;7.70;;;20.90;99.90;;;;;;5024721;28;20219;-66
2022/08/27 02:08:17;;;;;;;13.48;8.77;;;20.90;99.90;;;;;;5025845;28;20290;-66
2022/08/27 02:10:46;;;;;;;13.38;8.93;;;20.90;99.90;;;;;;5024113;28;20195;-66
2022/08/27 02:13:13;;;;;;;14.23;9.07;;;21.00;99.90;;;;;;5017850;28;20212;-65
2022/08/27 02:15:42;;;;;;;15.73;8.55;;;21.00;99.90;;;;;;5023905;28;20203;-66
2022/08/27 02:18:10;;;;;;;12.45;8.30;;;21.00;99.90;;;;;;5021483;28;20210;-66
2022/08/27 02:20:37;;;;;;;13.93;9.40;;;21.10;99.90;;;;;;5014897;28;20192;-66
2022/08/27 02:23:04;;;;;;;13.13;9.25;;;21.10;99.90;;;;;;5024180;28;20687;-66
2022/08/27 02:25:30;;;;;;;13.35;9.13;;;21.00;99.90;;;;;;5020798;28;20227;-66
2022/08/27 02:28:01;;;;;;;11.27;8.73;;;21.00;99.90;;;;;;5022162;28;20330;-65
2022/08/27 02:30:30;;;;;;;12.82;9.25;;;21.00;99.90;;;;;;5026255;28;20411;-65
2022/08/27 02:32:59;;;;;;;14.10;9.65;;;20.90;99.90;;;;;;5023843;28;20690;-66
2022/08/27 02:35:27;;;;;;;15.30;9.73;;;20.90;99.90;;;;;;5026175;28;20285;-67
2022/08/27 02:37:55;;;;;;;13.82;9.57;;;20.80;99.90;;;;;;5015811;28;20214;-65
2022/08/27 02:40:23;;;;;;;14.80;10.52;;;20.70;99.90;;;;;;5020795;28;20219;-65
2022/08/27 02:42:50;;;;;;;13.90;8.98;;;20.70;99.90;;;;;;5022433;28;21512;-66
2022/08/27 02:45:19;;;;;;;14.85;9.15;;;20.70;99.90;;;;;;5028749;28;20215;-65
2022/08/27 02:47:47;;;;;;;16.20;10.30;;;20.70;99.90;;;;;;5021845;28;20682;-65
2022/08/27 02:50:14;;;;;;;17.77;10.02;;;20.70;99.90;;;;;;5022226;28;20238;-65
2022/08/27 02:52:41;;;;;;;17.83;11.00;;;20.70;99.90;;;;;;5025169;28;20293;-66
2022/08/27 02:55:08;;;;;;;15.97;10.60;;;20.60;99.90;;;;;;5021169;28;20564;-65
2022/08/27 02:57:35;;;;;;;14.63;10.60;;;20.60;99.90;;;;;;5026486;28;20199;-67
2022/08/27 03:00:10;;;;;;;16.97;10.50;;;20.60;99.90;;;;;;5018894;28;20196;-66
2022/08/27 03:02:37;;;;;;;14.00;10.10;;;20.60;99.90;;;;;;5021550;28;20254;-65
2022/08/27 03:05:06;;;;;;;15.70;10.80;;;20.60;99.90;;;;;;5025569;28;20216;-65
2022/08/27 03:07:33;;;;;;;16.48;10.60;;;20.70;99.90;;;;;;5023601;28;20207;-66
2022/08/27 03:09:59;;;;;;;13.25;9.80;;;20.70;99.90;;;;;;5022682;28;20200;-65
2022/08/27 03:12:26;;;;;;;17.45;10.98;;;20.80;99.90;;;;;;5023435;28;20612;-65
2022/08/27 03:14:53;;;;;;;16.45;10.60;;;20.70;99.90;;;;;;5023484;28;20702;-66
2022/08/27 03:20:06;;;;;;;15.68;10.35;;;20.90;99.90;;;;;;5023819;28;20203;-67
2022/08/27 03:22:33;;;;;;;14.50;10.43;;;20.80;99.90;;;;;;5021155;28;20637;-64
2022/08/27 03:25:02;;;;;;;16.45;10.77;;;20.90;99.90;;;;;;5024923;28;20212;-64
2022/08/27 03:27:28;;;;;;;16.65;11.18;;;20.90;99.90;;;;;;5021048;28;20200;-65
2022/08/27 03:29:55;;;;;;;14.70;9.95;;;20.80;99.90;;;;;;5023128;28;20199;-64
2022/08/27 03:32:27;;;;;;;13.10;9.52;;;20.80;99.90;;;;;;5017880;28;20779;-64
2022/08/27 03:34:57;;;;;;;14.05;9.85;;;20.90;99.90;;;;;;5017580;28;20196;-64
2022/08/27 03:37:24;;;;;;;17.77;10.43;;;20.90;99.90;;;;;;5020296;28;21734;-64
2022/08/27 03:39:51;;;;;;;17.80;10.52;;;20.90;99.90;;;;;;5024299;28;20582;-64
2022/08/27 03:42:18;;;;;;;15.82;10.07;;;21.00;99.90;;;;;;5020660;28;20212;-64
2022/08/27 03:44:44;;;;;;;16.83;9.77;;;21.00;99.90;;;;;;5020523;28;20231;-64
2022/08/27 03:47:11;;;;;;;14.48;10.07;;;21.00;99.90;;;;;;5020976;28;20571;-64
2022/08/27 03:49:38;;;;;;;17.33;10.85;;;20.90;99.90;;;;;;5008236;28;20192;-64
2022/08/27 03:52:05;;;;;;;17.40;10.13;;;21.00;99.90;;;;;;5020230;28;20299;-64
2022/08/27 03:54:34;;;;;;;16.30;11.73;;;21.00;99.90;;;;;;5023988;28;20200;-64
2022/08/27 03:57:01;;;;;;;15.82;10.98;;;21.00;99.90;;;;;;5023151;28;20199;-64
2022/08/27 03:59:29;;;;;;;16.52;10.98;;;21.00;99.90;;;;;;5026119;28;20199;-64
2022/08/27 04:01:56;;;;;;;15.63;10.68;;;21.00;99.90;;;;;;5016812;28;20231;-64
2022/08/27 04:04:23;;;;;;;16.75;10.18;;;21.00;99.90;;;;;;5026228;28;20481;-65
2022/08/27 04:06:49;;;;;;;18.05;10.77;;;21.00;99.90;;;;;;5021135;28;20207;-66
2022/08/27 04:09:16;;;;;;;15.40;10.95;;;21.00;99.90;;;;;;5021958;28;20550;-65
2022/08/27 04:11:43;;;;;;;18.65;11.15;;;21.00;99.90;;;;;;5022690;28;20608;-66
2022/08/27 04:14:10;;;;;;;14.40;10.52;;;21.00;99.90;;;;;;5022102;28;20192;-66
2022/08/27 04:16:54;;;;;;;15.13;10.88;;;21.00;99.90;;;;;;5020342;28;20718;-65
2022/08/27 04:19:22;;;;;;;15.55;10.68;;;21.00;99.90;;;;;;5023505;28;20215;-64
2022/08/27 04:21:57;;;;;;;14.57;10.68;;;21.00;99.90;;;;;;5020684;28;20215;-64
2022/08/27 04:24:24;;;;;;;16.80;10.77;;;21.00;99.90;;;;;;5013102;28;20222;-64
2022/08/27 04:26:50;;;;;;;13.65;10.15;;;21.00;99.90;;;;;;5019400;28;20197;-64
2022/08/27 04:29:17;;;;;;;14.20;10.18;;;20.90;99.90;;;;;;5011509;28;20194;-63
2022/08/27 04:31:44;;;;;;;18.27;10.68;;;21.00;99.90;;;;;;5015627;28;20314;-64
2022/08/27 04:34:10;;;;;;;19.85;11.32;;;21.00;99.90;;;;;;5015674;28;20286;-64
2022/08/27 04:36:37;;;;;;;17.23;11.30;;;20.90;99.90;;;;;;5013689;28;20199;-64
2022/08/27 04:39:04;;;;;;;16.48;10.80;;;20.90;99.90;;;;;;5025735;28;20204;-64
2022/08/27 04:41:32;;;;;;;15.25;10.20;;;20.90;99.90;;;;;;5022587;28;20226;-64
2022/08/27 04:44:03;;;;;;;14.27;11.30;;;20.80;99.90;;;;;;5016721;28;20471;-64
2022/08/27 04:46:34;;;;;;;17.13;11.50;;;20.80;99.90;;;;;;5022148;28;20223;-64
2022/08/27 04:49:05;;;;;;;16.77;10.65;;;20.90;99.90;;;;;;5017857;28;20196;-64
2022/08/27 04:51:36;;;;;;;18.75;11.15;;;20.90;99.90;;;;;;5013331;28;20215;-64
2022/08/27 04:54:07;;;;;;;14.93;11.20;;;21.00;99.90;;;;;;5015212;28;20279;-64
2022/08/27 04:56:34;;;;;;;19.55;11.20;;;20.90;99.90;;;;;;5019941;28;20213;-64
2022/08/27 04:59:03;;;;;;;16.10;11.15;;;20.90;99.90;;;;;;5022969;28;20684;-64
2022/08/27 05:01:30;;;;;;;15.90;10.63;;;20.90;99.90;;;;;;5021635;28;20231;-64
2022/08/27 05:03:57;;;;;;;15.85;11.00;;;20.80;99.90;;;;;;5013310;28;20200;-66
2022/08/27 05:06:24;;;;;;;16.52;11.40;;;20.90;99.90;;;;;;5019834;28;20215;-66
2022/08/27 05:08:53;;;;;;;20.15;11.15;;;20.90;99.90;;;;;;5032504;28;20816;-65
2022/08/27 05:11:21;;;;;;;18.25;10.80;;;20.90;99.90;;;;;;5017221;28;20220;-66
2022/08/27 05:13:48;;;;;;;13.82;11.00;;;20.90;99.90;;;;;;5025448;28;20191;-66
2022/08/27 05:16:18;;;;;;;15.82;10.98;;;20.90;99.90;;;;;;5025049;28;20203;-66
2022/08/27 05:18:47;;;;;;;17.23;10.52;;;21.00;99.90;;;;;;5025714;28;20203;-66
2022/08/27 05:21:23;;;;;;;16.45;10.55;;;21.00;99.90;;;;;;5019463;28;20234;-65
2022/08/27 05:23:53;;;;;;;12.85;9.02;;;21.10;99.90;;;;;;5025885;28;20203;-66
2022/08/27 05:26:20;;;;;;;15.25;10.75;;;21.10;99.90;;;;;;5023938;28;20230;-66
2022/08/27 05:28:47;;;;;;;17.40;10.10;;;21.20;99.90;;;;;;5025069;28;20211;-66
2022/08/27 05:31:15;;;;;;;16.77;10.02;;;21.10;99.90;;;;;;5021610;28;20219;-66
2022/08/27 05:33:42;;;;;;;16.63;9.65;;;21.10;99.90;;;;;;5015505;28;20668;-65
2022/08/27 05:36:21;;;;;;;16.52;9.77;;;21.00;99.90;;;;;;5020627;28;20203;-66
2022/08/27 05:38:49;;;;;;;16.70;9.52;;;21.10;99.90;;;;;;5026751;28;20203;-66
2022/08/27 05:41:18;;;;;;;15.68;8.65;;;21.20;99.90;;;;;;5014733;28;20239;-65
2022/08/27 05:43:46;;;;;;;13.82;9.65;;;21.20;99.90;;;;;;5020184;28;20196;-66
2022/08/27 05:46:17;;;;;;;14.43;10.32;;;21.20;99.90;;;;;;5012926;28;20739;-67
2022/08/27 05:48:46;;;;;;;12.88;9.05;;;21.10;99.90;;;;;;5023321;28;20549;-65
2022/08/27 05:51:21;;;;;;;15.15;9.77;;;21.20;99.90;;;;;;5010758;28;20241;-67
2022/08/27 05:53:57;;;;;;;12.88;9.05;;;21.10;99.90;;;;;;5021173;28;20206;-65
2022/08/27 05:56:26;;;;;;;16.13;9.32;;;21.10;99.90;;;;;;5018145;28;20292;-66
2022/08/27 06:01:47;;;;;;;13.77;9.27;;;21.10;99.90;;;;;;5009844;28;20238;-67
2022/08/27 06:04:14;;;;;;;12.50;8.37;;;21.30;99.90;;;;;;5014188;28;20207;-66
2022/08/27 06:06:44;;;;;;;14.43;8.93;;;21.20;99.90;;;;;;5019406;28;20227;-67
2022/08/27 06:09:15;;;;;;;13.70;8.32;;;21.30;99.90;;;;;;5021267;28;20187;-66
2022/08/27 06:11:42;;;;;;;12.65;8.38;;;21.40;99.90;;;;;;5020064;28;20216;-66
2022/08/27 06:14:10;;;;;;;12.55;8.98;;;21.40;99.90;;;;;;5028051;28;20195;-66
2022/08/27 06:16:37;;;;;;;15.05;9.32;;;21.40;99.90;;;;;;5021430;28;20226;-66
2022/08/27 06:19:05;;;;;;;12.55;8.13;;;21.50;99.90;;;;;;5025527;28;20656;-64
2022/08/27 06:21:33;;;;;;;15.40;8.07;;;21.50;99.90;;;;;;5019972;28;20224;-64
2022/08/27 06:24:00;;;;;;;14.63;8.00;;;21.40;99.90;;;;;;5021782;28;20441;-64
2022/08/27 06:26:28;;;;;;;15.60;8.90;;;21.50;99.90;;;;;;5015300;28;20215;-64
2022/08/27 06:28:54;;;;;;;12.80;8.05;;;21.50;99.90;;;;;;5017344;28;20203;-64
2022/08/27 06:31:24;;;;;;;12.15;7.82;;;21.60;99.90;;;;;;5023719;28;20212;-64
2022/08/27 06:33:52;;;;;;;13.90;8.55;;;21.60;99.90;;;;;;5020401;28;20200;-64
2022/08/27 06:36:24;;;;;;;11.23;7.32;;;21.50;99.90;;;;;;5019785;28;20207;-64
2022/08/27 06:38:53;;;;;;;11.82;7.70;;;21.50;99.90;;;;;;5016342;28;20704;-64
2022/08/27 06:41:22;;;;;;;10.30;7.20;;;21.60;99.90;;;;;;5019484;28;20226;-64
2022/08/27 06:43:50;;;;;;;13.23;7.40;;;21.70;99.90;;;;;;5017937;28;20261;-66
2022/08/27 06:46:20;;;;;;;16.35;7.45;;;21.70;99.90;;;;;;5024038;28;20223;-66
2022/08/27 06:48:50;;;;;;;12.40;7.43;;;21.80;99.90;;;;;;5021871;28;20199;-67
2022/08/27 06:51:28;;;;;;;13.82;7.80;;;21.90;99.90;;;;;;5015432;28;20220;-66
2022/08/27 06:53:57;;;;;;;13.05;8.10;;;21.90;99.90;;;;;;5017712;28;20210;-65
2022/08/27 06:56:25;;;;;;;14.50;6.97;;;22.00;99.90;;;;;;5015247;28;20207;-66
2022/08/27 06:58:56;;;;;;;11.50;7.22;;;22.00;99.90;;;;;;5022975;28;20210;-65
2022/08/27 07:01:28;;;;;;;8.73;6.95;;;22.20;99.90;;;;;;5020980;28;20227;-66
2022/08/27 07:03:58;;;;;;;12.82;7.70;;;22.30;99.90;;;;;;5019925;28;20708;-65
2022/08/27 07:06:26;;;;;;;13.52;7.00;;;22.20;99.90;;;;;;5017751;28;20228;-66
2022/08/27 07:08:55;;;;;;;10.20;6.55;;;22.20;99.90;;;;;;5021409;28;20227;-67
2022/08/27 07:11:23;;;;;;;14.27;7.03;;;22.10;99.90;;;;;;5014723;28;20398;-68
2022/08/27 07:13:50;;;;;;;12.07;7.07;;;22.10;99.90;;;;;;5021491;28;20207;-65
2022/08/27 07:16:23;;;;;;;10.32;6.75;;;21.90;99.90;;;;;;5015163;28;20211;-67
2022/08/27 07:18:52;;;;;;;12.88;7.65;;;22.00;99.90;;;;;;5024910;28;20198;-66
2022/08/27 07:21:20;;;;;;;9.15;6.95;;;22.20;99.90;;;;;;5023438;28;20231;-66
2022/08/27 07:23:48;;;;;;;11.23;7.45;;;22.20;99.90;;;;;;5022276;28;20195;-64
2022/08/27 07:26:16;;;;;;;10.73;7.10;;;22.20;99.90;;;;;;5019826;28;20220;-65
2022/08/27 07:28:45;;;;;;;11.43;6.82;;;22.10;99.90;;;;;;5017892;28;20199;-65
2022/08/27 07:31:15;;;;;;;8.20;6.43;;;22.10;99.90;;;;;;5017966;28;20219;-65
2022/08/27 07:33:43;;;;;;;10.25;6.72;;;22.20;99.90;;;;;;5024865;28;20546;-65
2022/08/27 07:36:19;;;;;;;11.95;6.50;;;22.30;99.90;;;;;;5017162;28;20656;-65
2022/08/27 07:38:47;;;;;;;9.50;6.75;;;22.30;99.90;;;;;;5019332;28;20210;-65
2022/08/27 07:41:26;;;;;;;10.93;6.88;;;22.40;99.90;;;;;;5024066;28;20404;-71
2022/08/27 07:46:44;;;;;;;10.82;6.40;;;22.50;99.90;;;;;;5019054;28;20242;-70
2022/08/27 07:49:14;;;;;;;10.70;7.18;;;22.60;99.90;;;;;;5018134;28;20187;-70
2022/08/27 07:51:41;;;;;;;10.60;6.50;;;22.80;99.90;;;;;;5018081;28;20684;-70
2022/08/27 07:54:07;;;;;;;10.45;6.60;;;22.80;99.90;;;;;;5015777;28;20420;-70
2022/08/27 07:56:34;;;;;;;13.35;6.85;;;22.90;99.90;;;;;;5013252;28;20207;-70
2022/08/27 07:59:01;;;;;;;10.55;7.05;;;22.90;99.90;;;;;;5017413;28;20204;-70
2022/08/27 08:01:28;;;;;;;13.18;6.57;;;23.10;99.90;;;;;;5022755;28;20231;-70
2022/08/27 08:03:55;;;;;;;8.50;5.75;;;23.20;99.90;;;;;;5017810;28;20227;-66
2022/08/27 08:06:22;;;;;;;8.02;5.90;;;23.20;99.90;;;;;;5019668;28;20501;-66
2022/08/27 08:08:49;;;;;;;8.57;5.63;;;23.40;99.90;;;;;;5025424;28;20656;-66
2022/08/27 08:11:16;;;;;;;10.82;5.90;;;23.50;99.90;;;;;;5017123;28;20714;-66
2022/08/27 08:13:44;;;;;;;8.82;6.15;;;23.70;99.90;;;;;;5024763;28;20196;-66
2022/08/27 08:16:12;;;;;;;8.40;5.30;;;23.70;99.90;;;;;;5021834;28;20595;-66
2022/08/27 08:18:39;;;;;;;8.80;5.53;;;24.00;99.90;;;;;;5015916;28;20196;-66
2022/08/27 08:21:08;;;;;;;8.40;5.97;;;24.20;99.90;;;;;;5011117;28;20220;-66
2022/08/27 08:23:35;;;;;;;8.85;5.50;;;24.00;99.90;;;;;;5010108;28;20300;-66
2022/08/27 08:26:02;;;;;;;9.50;5.78;;;23.90;99.90;;;;;;5012704;28;20215;-66
2022/08/27 08:28:29;;;;;;;8.40;5.18;;;23.90;99.90;;;;;;5017765;28;20203;-66
2022/08/27 08:30:57;;;;;;;7.60;4.72;;;23.70;99.90;;;;;;5013390;28;20204;-66
2022/08/27 08:33:24;;;;;;;8.43;5.85;;;23.90;99.90;;;;;;5024539;28;20204;-66
2022/08/27 08:35:51;;;;;;;8.15;5.32;;;24.10;99.90;;;;;;5021083;28;20682;-66
2022/08/27 08:38:18;;;;;;;7.97;5.18;;;24.00;99.90;;;;;;5018079;28;20294;-66
2022/08/27 08:40:49;;;;;;;7.18;4.68;;;24.10;99.90;;;;;;5016026;28;20204;-66
2022/08/27 08:43:41;;;;;;;7.95;5.13;;;24.40;99.90;;;;;;5014343;28;20211;-66
2022/08/27 08:46:16;;;;;;;9.38;5.53;;;24.70;99.90;;;;;;5016529;28;20224;-66
2022/08/27 08:48:47;;;;;;;7.35;4.85;;;24.40;99.90;;;;;;5020135;28;20195;-66
2022/08/27 08:51:31;;;;;;;7.40;4.90;;;24.50;99.90;;;;;;5012317;28;20222;-66
2022/08/27 08:54:03;;;;;;;6.70;4.50;;;25.10;99.90;;;;;;5017281;28;20196;-66
2022/08/27 08:56:55;;;;;;;8.57;5.38;;;25.40;99.90;;;;;;5013790;28;20219;-66
2022/08/27 08:59:46;;;;;;;10.38;5.53;;;25.10;99.90;;;;;;5013401;28;20200;-66
2022/08/27 09:02:14;;;;;;;7.53;4.93;;;25.10;99.90;;;;;;5015536;28;20231;-68
2022/08/27 09:04:42;;;;;;;8.30;5.13;;;26.00;99.90;;;;;;5027023;28;20207;-69
2022/08/27 09:07:22;;;;;;;4.80;4.03;;;26.30;99.90;;;;;;5022227;28;20234;-68
2022/08/27 09:10:02;;;;;;;7.13;4.47;;;26.80;99.90;;;;;;5022322;28;20262;-69
2022/08/27 09:12:32;;;;;;;4.85;4.20;;;27.20;99.90;;;;;;5017810;28;20222;-69
2022/08/27 09:15:12;;;;;;;5.70;4.40;;;27.20;99.90;;;;;;5023476;28;20206;-69
2022/08/27 09:17:40;;;;;;;6.72;4.40;;;27.00;99.90;;;;;;5025684;28;20203;-69
2022/08/27 09:20:09;;;;;;;5.15;4.32;;;27.00;99.90;;;;;;5021746;28;20275;-69
2022/08/27 09:23:05;;;;;;;10.43;4.97;;;27.20;99.90;;;;;;5023952;28;20223;-68
2022/08/27 09:25:35;;;;;;;10.43;5.30;;;27.40;99.90;;;;;;5023309;28;20711;-68
2022/08/27 09:29:14;;;;;;;6.15;4.57;;;27.30;99.90;;;;;;5025090;28;20251;-69
2022/08/27 09:31:10;;;;;;;6.85;5.28;;;27.20;99.90;;;;;;5018065;28;20200;-68
2022/08/27 09:33:37;;;;;;;8.75;4.85;;;27.30;99.90;;;;;;5010921;28;20195;-68
2022/08/27 09:36:20;;;;;;;6.47;4.47;;;28.00;99.90;;;;;;5016511;28;20732;-70
2022/08/27 09:38:59;;;;;;;7.78;5.45;;;27.50;99.90;;;;;;5024949;28;20695;-68
2022/08/27 09:41:30;;;;;;;9.27;5.30;;;27.50;99.90;;;;;;5019875;28;20224;-68
2022/08/27 09:44:09;;;;;;;5.85;4.90;;;27.20;99.90;;;;;;5021411;28;20226;-68
2022/08/27 09:46:35;;;;;;;8.25;5.30;;;26.90;99.90;;;;;;5026163;28;20690;-69
2022/08/27 09:49:11;;;;;;;9.82;5.35;;;27.00;99.90;;;;;;5019055;28;20199;-68
2022/08/27 09:51:41;;;;;;;9.48;5.28;;;27.40;99.90;;;;;;5019450;28;20714;-69
2022/08/27 09:54:08;;;;;;;5.90;4.47;;;27.20;99.90;;;;;;5013233;28;20188;-67
2022/08/27 09:56:37;;;;;;;7.25;4.80;;;27.10;99.90;;;;;;5018604;28;20211;-67
2022/08/27 09:59:07;;;;;;;8.80;4.55;;;27.40;99.90;;;;;;5026194;28;20685;-67
2022/08/27 10:01:47;;;;;;;6.82;5.30;;;27.40;99.90;;;;;;5023704;28;20232;-69
2022/08/27 10:04:16;;;;;;;7.60;4.93;;;27.20;99.90;;;;;;5021610;28;20213;-69
2022/08/27 10:06:49;;;;;;;8.75;5.30;;;27.40;99.90;;;;;;5017515;28;20220;-69
2022/08/27 10:09:19;;;;;;;6.78;4.70;;;27.70;99.90;;;;;;5013148;28;20204;-69
2022/08/27 10:12:19;;;;;;;7.32;4.70;;;27.80;99.90;;;;;;5022119;28;20750;-69
2022/08/27 10:14:51;;;;;;;10.02;5.10;;;28.20;99.90;;;;;;5021550;28;20200;-67
2022/08/27 10:17:31;;;;;;;8.68;4.90;;;28.20;99.90;;;;;;5029159;28;20753;-68
2022/08/27 10:20:17;;;;;;;10.82;5.03;;;28.10;99.90;;;;;;5028027;28;20387;-67
2022/08/27 10:23:17;;;;;;;9.60;5.20;;;27.70;99.90;;;;;;5013969;28;20329;-67
2022/08/27 10:26:15;;;;;;;7.20;4.50;;;27.50;99.90;;;;;;5026178;28;20200;-67
2022/08/27 10:28:43;;;;;;;6.55;4.78;;;27.50;99.90;;;;;;5018213;28;20672;-67
2022/08/27 10:31:44;;;;;;;7.63;4.65;;;27.60;99.90;;;;;;5022195;28;20554;-68
2022/08/27 10:34:21;;;;;;;6.75;4.95;;;27.90;99.90;;;;;;5026759;28;20195;-68
2022/08/27 10:37:10;;;;;;;5.85;4.40;;;27.90;99.90;;;;;;5013324;28;20569;-69
2022/08/27 10:39:57;;;;;;;6.35;4.60;;;28.30;99.90;;;;;;5025023;28;20725;-69
2022/08/27 10:42:39;;;;;;;5.72;4.15;;;28.60;99.90;;;;;;5026291;28;20696;-69
2022/08/27 10:45:28;;;;;;;11.05;4.47;;;28.60;99.90;;;;;;5022010;28;20196;-66
2022/08/27 10:48:05;;;;;;;6.93;4.50;;;27.80;99.90;;;;;;5023130;28;20220;-66
2022/08/27 10:51:03;;;;;;;5.50;4.43;;;27.30;99.90;;;;;;5023653;28;20196;-67
2022/08/27 10:53:46;;;;;;;6.63;4.60;;;27.30;99.90;;;;;;5023805;28;20203;-66
2022/08/27 10:56:29;;;;;;;6.53;4.47;;;27.70;99.90;;;;;;5023764;28;20969;-66
2022/08/27 10:59:09;;;;;;;6.38;4.15;;;27.90;99.90;;;;;;5023332;28;20208;-66
2022/08/27 11:02:14;;;;;;;5.85;4.50;;;28.20;99.90;;;;;;5017892;28;20223;-66
2022/08/27 11:04:54;;;;;;;8.13;4.07;;;28.20;99.90;;;;;;5016146;28;20575;-65
2022/08/27 11:07:27;;;;;;;5.95;4.28;;;28.60;99.90;;;;;;5024790;28;20580;-64
2022/08/27 11:10:14;;;;;;;5.85;3.95;;;28.70;99.90;;;;;;5016132;28;20197;-64
2022/08/27 11:12:50;;;;;;;5.32;4.55;;;28.50;99.90;;;;;;5022104;28;20208;-65
2022/08/27 11:15:24;;;;;;;7.15;4.82;;;28.50;99.90;;;;;;5012559;28;20200;-64
2022/08/27 11:17:58;;;;;;;7.32;4.78;;;27.40;99.90;;;;;;5026131;28;20206;-65
2022/08/27 11:20:34;;;;;;;6.20;4.32;;;27.40;99.90;;;;;;5016324;28;20199;-65
2022/08/27 11:23:13;;;;;;;7.93;4.82;;;27.50;99.90;;;;;;5022721;28;20223;-64
2022/08/27 11:26:02;;;;;;;7.35;4.30;;;27.50;99.90;;;;;;5021845;28;20569;-64
2022/08/27 11:28:41;;;;;;;5.63;4.45;;;27.50;99.90;;;;;;5020111;28;20219;-64
2022/08/27 11:31:30;;;;;;;6.18;4.60;;;27.50;99.90;;;;;;5023060;28;20206;-65
2022/08/27 11:34:07;;;;;;;7.93;4.95;;;27.60;99.90;;;;;;5020443;28;20684;-65
2022/08/27 11:37:11;;;;;;;8.45;4.40;;;27.70;99.90;;;;;;5021167;28;20207;-65
2022/08/27 11:39:53;;;;;;;6.07;4.35;;;28.10;99.90;;;;;;5021987;28;20726;-65
2022/08/27 11:42:58;;;;;;;7.07;5.13;;;28.40;99.90;;;;;;5015964;28;20227;-65
2022/08/27 11:45:37;;;;;;;6.53;4.50;;;27.70;99.90;;;;;;5015188;28;20200;-65
2022/08/27 11:48:27;;;;;;;5.68;4.82;;;27.60;99.90;;;;;;5018314;28;20219;-64
2022/08/27 11:51:15;;;;;;;7.03;4.70;;;27.60;99.90;;;;;;5025746;28;20199;-65
2022/08/27 11:53:56;;;;;;;7.05;4.70;;;27.80;99.90;;;;;;5016441;28;20199;-65
2022/08/27 11:56:28;;;;;;;7.25;4.60;;;27.80;99.90;;;;;;5017289;28;20216;-64
2022/08/27 11:59:07;;;;;;;6.43;4.25;;;27.60;99.90;;;;;;5008331;28;20676;-65
2022/08/27 12:01:34;;;;;;;7.55;4.50;;;27.40;99.90;;;;;;5011875;28;20322;-65
2022/08/27 12:04:05;;;;;;;9.15;5.10;;;27.30;99.90;;;;;;5017167;28;20207;-65
2022/08/27 12:06:48;;;;;;;10.68;4.85;;;27.30;99.90;;;;;;5009226;28;20207;-65
2022/08/27 12:09:20;;;;;;;6.35;4.72;;;27.10;99.90;;;;;;5013230;28;20188;-65
2022/08/27 12:12:11;;;;;;;8.13;4.72;;;27.10;99.90;;;;;;5011397;28;20216;-64
2022/08/27 12:14:43;;;;;;;5.70;4.65;;;26.80;99.90;;;;;;5011870;28;20685;-65
2022/08/27 12:17:24;;;;;;;8.07;5.82;;;26.10;99.90;;;;;;5013753;28;20200;-65
2022/08/27 12:20:11;;;;;;;8.35;6.40;;;25.40;99.90;;;;;;5020741;28;20209;-66
2022/08/27 12:25:38;;;;;;;10.23;7.90;;;23.60;99.90;;;;;;5014288;28;20211;-70
2022/08/27 12:28:08;;;;;;;11.82;7.32;;;22.70;99.90;;;;;;5018221;28;20656;-71
2022/08/27 12:30:38;;;;;;;10.63;7.22;;;22.30;99.90;;;;;;5025564;28;20592;-71
2022/08/27 12:33:21;;;;;;;11.13;8.35;;;22.10;99.90;;;;;;5011281;28;20248;-72
2022/08/27 12:35:51;;;;;;;12.65;8.50;;;22.00;99.90;;;;;;5016642;28;20195;-72
2022/08/27 12:38:41;;;;;;;11.82;7.78;;;22.00;99.90;;;;;;5025277;28;20196;-71
2022/08/27 12:41:11;;;;;;;13.73;8.93;;;22.00;99.90;;;;;;5022967;28;20223;-72
2022/08/27 12:43:42;;;;;;;14.88;9.23;;;22.10;99.90;;;;;;5024505;28;20241;-72
2022/08/27 12:46:18;;;;;;;14.20;9.32;;;22.20;99.90;;;;;;5025984;28;20258;-72
2022/08/27 12:48:55;;;;;;;17.63;10.48;;;22.40;99.90;;;;;;5027122;28;20561;-72
2022/08/27 12:51:36;;;;;;;10.80;8.32;;;22.80;99.90;;;;;;5014664;28;20216;-71
2022/08/27 12:54:04;;;;;;;10.32;8.02;;;23.10;99.90;;;;;;5015823;28;20188;-71
2022/08/27 12:56:49;;;;;;;12.75;8.10;;;23.50;99.90;;;;;;5017618;28;20204;-71
2022/08/27 12:59:48;;;;;;;8.88;7.13;;;24.10;99.90;;;;;;5020036;28;20200;-71
2022/08/27 13:03:00;;;;;;;10.20;7.30;;;24.80;99.90;;;;;;5024402;28;20262;-71
2022/08/27 13:05:36;;;;;;;10.23;7.82;;;25.40;99.90;;;;;;5013041;28;20196;-70
2022/08/27 13:08:03;;;;;;;8.85;6.78;;;25.40;99.90;;;;;;5015792;28;20295;-70
2022/08/27 13:10:31;;;;;;;8.05;6.68;;;25.50;99.90;;;;;;5021113;28;20577;-70
2022/08/27 13:13:10;;;;;;;9.90;6.68;;;25.50;99.90;;;;;;5027628;28;20211;-70
2022/08/27 13:15:51;;;;;;;8.27;6.45;;;25.70;99.90;;;;;;5021694;28;20202;-70